CheckWX is a tool to help pilots better visualize weather data.  It is not intended as a substitute for an official pre-flight weather briefing.

04:52:26 UTC

EPWR METAR
Copernicus Wrocław Airport
Wrocław, Poland
Current

22 mins ago

EPWR 230430Z VRB02KT 9000 SCT046 13/12 Q1028
Observed
Aug-23 @ 04:30 UTC
Wind
  • Variable at 2 KTS
Visibility
9,000 meters
Flight Rules
VFR
Cloud Levels
  • Scattered at 4,600' AGL
Temperature
13°C / 55°F
Dewpoint
12°C / 54°F
Humidity
94%
Altimeter
30.35" Hg
Pressure
1027.92 hPa
Previous

52 mins ago

EPWR 230400Z VRB02KT 3000 BR FEW045 12/12 Q1027
Observed
Aug-23 @ 04:00 UTC
Wind
  • Variable at 2 KTS
Visibility
3,000 meters
Flight Rules
IFR
Conditions
Mist
Cloud Levels
  • Few at 4,500' AGL
Temperature
12°C / 54°F
Dewpoint
12°C / 54°F
Humidity
100%
Altimeter
30.32" Hg
Pressure
1026.92 hPa
Previous

1 hour ago

EPWR 230330Z 30003KT 1100 R29/P2000N MIFG BR NSC 11/11 Q1027
Observed
Aug-23 @ 03:30 UTC
Wind
  • 300° at 3 KTS
Visibility
1,100 meters
Flight Rules
LIFR
Conditions
Shallow Fog, Mist
Cloud Levels
  • Clear skies
Temperature
11°C / 52°F
Dewpoint
11°C / 52°F
Humidity
100%
Altimeter
30.32" Hg
Pressure
1026.92 hPa